UNNT/OVB METAR and TAF weather

Enter ICAO airport designator
Station Type Date Time Source
UNNT METAR 2022/01/26 08:00 UTC NOAA

UNNT 260800Z 16005MPS 8000 -SN OVC045 M15/M19 Q1023 R25/490240 R16/453035 NOSIG RMK QFE758/1010


Station Type Date Time Source
UNNT Decoded METAR 2022/01/26 08:00 UTC NOAA

Station name not available
Jan 26, 2022 - 03:00 AM EST / 2022.01.26 0800 UTC
Wind: from the SSE (160 degrees) at 11 MPH (10 KT):0
Visibility: 4 mile(s):0
Sky conditions: overcast
Weather: light snow
Temperature: 5 F (-15 C)
Windchill: -11 F (-24 C):2
Dew Point: -2 F (-19 C)
Relative Humidity: 71%
Pressure (altimeter): 30.21 in. Hg (1023 hPa)
ob: UNNT 260800Z 16005MPS 8000 -SN OVC045 M15/M19 Q1023 R25/490240 R16/453035 NOSIG RMK QFE758/1010
cycle: 8

Station Type Date Time Source
UNNT TAF 2022/01/26 09:21 UTC NOAA

TAF UNNT 260800Z 2609/2709 17003G08MPS 8000 -SN BKN040
TEMPO 2609/2613 13006G13MPS 1500 SHSN DRSN BKN005 BKN011CB
TEMPO 2613/2618 BKN016
BECMG 2618/2620 33003MPS BKN016
TEMPO 2620/2705 1500 BR SCT005 SCT011CB

Example: see airport list